createdAt,value
2023-03-21T00:01:40.455Z,97197.94
2023-03-21T00:04:08.176Z,97198.84
2023-03-21T00:06:36.765Z,97206.47
2023-03-21T00:09:04.763Z,97197.38
2023-03-21T00:11:32.569Z,97192.59
2023-03-21T00:14:02.444Z,97204.97
2023-03-21T00:16:36.071Z,97204.09
2023-03-21T00:19:06.880Z,97203.91
2023-03-21T00:21:59.265Z,97204.22
2023-03-21T00:24:26.160Z,97204.75
2023-03-21T00:26:53.962Z,97196.88
2023-03-21T00:29:21.674Z,97202.72
2023-03-21T00:31:49.677Z,97195.91
2023-03-21T00:34:26.730Z,97195.22
2023-03-21T00:37:04.323Z,97193.47
2023-03-21T00:39:32.191Z,97200.72
2023-03-21T00:41:59.883Z,97187.59
2023-03-21T00:44:27.545Z,97183.25
2023-03-21T00:47:06.602Z,97175.19
2023-03-21T00:49:38.487Z,97184.00
2023-03-21T00:52:17.088Z,97181.50
2023-03-21T00:54:50.176Z,97170.00
2023-03-21T00:57:20.204Z,97173.69
2023-03-21T00:59:48.004Z,97179.47
2023-03-21T01:02:23.258Z,97170.38
2023-03-21T01:04:52.309Z,97172.84
2023-03-21T01:07:19.931Z,97175.03
2023-03-21T01:09:47.636Z,97173.59
2023-03-21T01:12:16.756Z,97165.84
2023-03-21T01:14:44.378Z,97169.88
2023-03-21T01:17:11.941Z,97165.69
2023-03-21T01:19:51.161Z,97164.41
2023-03-21T01:22:21.538Z,97167.34
2023-03-21T01:24:57.019Z,97152.91
2023-03-21T01:27:28.549Z,97167.78
2023-03-21T01:29:56.383Z,97165.81
2023-03-21T01:32:23.961Z,97161.38
2023-03-21T01:34:51.578Z,97147.41
2023-03-21T01:37:20.074Z,97147.25
2023-03-21T01:39:49.029Z,97146.13
2023-03-21T01:42:17.118Z,97148.28
2023-03-21T01:44:56.651Z,97138.59
2023-03-21T01:47:24.358Z,97146.16
2023-03-21T01:49:53.977Z,97133.69
2023-03-21T01:52:35.959Z,97137.28
2023-03-21T01:55:08.453Z,97140.41
2023-03-21T01:57:49.437Z,97135.91
2023-03-21T02:00:21.666Z,97127.97
2023-03-21T02:02:52.670Z,97120.84
2023-03-21T02:05:23.893Z,97127.00
2023-03-21T02:07:53.735Z,97129.19
2023-03-21T02:10:23.367Z,97129.00
2023-03-21T02:12:51.155Z,97129.94
2023-03-21T02:15:18.927Z,97131.22
2023-03-21T02:17:51.457Z,97125.28
2023-03-21T02:20:40.823Z,97137.47
2023-03-21T02:23:22.050Z,97125.97
2023-03-21T02:26:24.788Z,97138.88
2023-03-21T02:28:57.679Z,97128.56
2023-03-21T02:31:32.298Z,97125.47
2023-03-21T02:34:48.812Z,97128.19
2023-03-21T02:37:28.973Z,97127.91
2023-03-21T02:40:11.081Z,97139.91
2023-03-21T02:42:51.541Z,97132.25
2023-03-21T02:45:28.162Z,97136.59
2023-03-21T02:47:58.940Z,97133.31
2023-03-21T02:50:31.268Z,97133.06
2023-03-21T02:53:01.424Z,97138.47
2023-03-21T02:55:32.352Z,97141.91
2023-03-21T02:58:11.706Z,97141.59
2023-03-21T03:00:40.708Z,97133.22
2023-03-21T03:03:11.456Z,97139.91
2023-03-21T03:05:44.773Z,97135.69
2023-03-21T03:08:26.572Z,97140.81
2023-03-21T03:11:10.216Z,97142.00
2023-03-21T03:13:51.744Z,97133.31
2023-03-21T03:16:27.454Z,97138.19
2023-03-21T03:18:56.805Z,97130.00
2023-03-21T03:21:29.459Z,97133.97
2023-03-21T03:23:59.394Z,97134.50
2023-03-21T03:26:30.339Z,97133.66
2023-03-21T03:29:01.838Z,97128.94
2023-03-21T03:31:33.237Z,97132.38
2023-03-21T03:34:02.802Z,97134.31
2023-03-21T03:36:36.304Z,97131.94
2023-03-21T03:39:09.273Z,97132.38
2023-03-21T03:42:05.986Z,97129.75
2023-03-21T03:44:30.649Z,97132.97
2023-03-21T03:47:01.493Z,97128.78
2023-03-21T03:49:32.807Z,97128.03
2023-03-21T03:52:03.089Z,97126.16
2023-03-21T03:54:34.314Z,97130.97
2023-03-21T03:57:02.449Z,97129.00
2023-03-21T03:59:30.195Z,97128.66
2023-03-21T04:01:57.845Z,97128.66
2023-03-21T04:04:28.978Z,97120.41
2023-03-21T04:06:58.092Z,97119.56
2023-03-21T04:09:37.472Z,97120.59
2023-03-21T04:12:12.819Z,97120.47
2023-03-21T04:14:45.601Z,97123.09
2023-03-21T04:17:17.508Z,97123.09
2023-03-21T04:19:46.280Z,97121.56
2023-03-21T04:22:14.272Z,97115.97
2023-03-21T04:24:42.692Z,97128.03
2023-03-21T04:27:10.591Z,97129.03
2023-03-21T04:29:39.882Z,97128.19
2023-03-21T04:32:16.212Z,97125.84
2023-03-21T04:34:50.223Z,97132.09
2023-03-21T04:37:19.037Z,97130.75
2023-03-21T04:39:47.663Z,97132.84
2023-03-21T04:42:18.712Z,97127.31
2023-03-21T04:44:48.298Z,97132.25
2023-03-21T04:47:16.961Z,97129.75
2023-03-21T04:49:48.061Z,97121.00
2023-03-21T04:52:15.860Z,97117.16
2023-03-21T04:54:43.872Z,97122.34
2023-03-21T04:57:11.519Z,97116.13
2023-03-21T04:59:39.191Z,97120.09
2023-03-21T05:02:08.219Z,97121.94
2023-03-21T05:04:35.892Z,97120.16
2023-03-21T05:07:03.539Z,97124.75
2023-03-21T05:09:31.325Z,97124.44
2023-03-21T05:11:59.007Z,97123.03
2023-03-21T05:14:28.372Z,97122.78
2023-03-21T05:16:57.239Z,97126.78
2023-03-21T05:19:34.745Z,97125.56
2023-03-21T05:22:04.710Z,97123.03
2023-03-21T05:24:33.010Z,97124.38
2023-03-21T05:27:02.640Z,97119.63
2023-03-21T05:29:31.505Z,97125.13
2023-03-21T05:31:59.292Z,97124.88
2023-03-21T05:34:28.895Z,97124.59
2023-03-21T05:36:56.672Z,97128.78
2023-03-21T05:39:24.317Z,97124.19
2023-03-21T05:41:51.989Z,97121.81
2023-03-21T05:44:19.626Z,97120.53
2023-03-21T05:46:47.223Z,97125.03
2023-03-21T05:49:14.881Z,97135.22
2023-03-21T05:51:45.323Z,97125.47
2023-03-21T05:54:16.623Z,97121.75
2023-03-21T05:56:44.343Z,97120.91
2023-03-21T05:59:12.042Z,97115.28
2023-03-21T06:01:39.761Z,97130.44
2023-03-21T06:04:07.664Z,97133.38
2023-03-21T06:06:35.420Z,97135.09
2023-03-21T06:09:04.860Z,97135.25
2023-03-21T06:11:34.588Z,97139.00
2023-03-21T06:14:02.262Z,97144.84
2023-03-21T06:16:30.475Z,97140.84
2023-03-21T06:18:58.169Z,97134.59
2023-03-21T06:21:26.830Z,97138.81
2023-03-21T06:23:54.620Z,97138.13
2023-03-21T06:26:23.715Z,97144.00
2023-03-21T06:28:51.376Z,97148.94
2023-03-21T06:31:19.112Z,97147.03
2023-03-21T06:33:46.798Z,97143.97
2023-03-21T06:36:14.400Z,97149.06
2023-03-21T06:38:42.066Z,97150.88
2023-03-21T06:41:10.312Z,97148.75
2023-03-21T06:43:39.320Z,97153.56
2023-03-21T06:46:07.095Z,97145.72
2023-03-21T06:48:34.885Z,97150.72
2023-03-21T06:51:02.459Z,97148.56
2023-03-21T06:53:30.200Z,97159.47
2023-03-21T06:55:57.910Z,97152.94
2023-03-21T06:58:25.625Z,97147.72
2023-03-21T07:00:59.246Z,97145.66
2023-03-21T07:03:27.161Z,97153.13
2023-03-21T07:05:54.984Z,97149.44
2023-03-21T07:08:22.646Z,97141.75
2023-03-21T07:10:50.525Z,97149.66
2023-03-21T07:13:18.188Z,97142.41
2023-03-21T07:15:45.797Z,97132.66
2023-03-21T07:18:14.866Z,97116.00
2023-03-21T07:20:42.597Z,97124.34
2023-03-21T07:23:10.264Z,97123.84
2023-03-21T07:25:38.129Z,97121.06
2023-03-21T07:28:09.296Z,97109.34
2023-03-21T07:30:37.893Z,97111.13
2023-03-21T07:33:07.143Z,97109.25
2023-03-21T07:35:37.491Z,97107.50
2023-03-21T07:38:05.405Z,97118.91
2023-03-21T07:40:33.339Z,97114.78
2023-03-21T07:45:33.438Z,97113.88
2023-03-21T07:48:01.840Z,97111.38
2023-03-21T07:50:29.506Z,97114.25
2023-03-21T07:52:58.522Z,97095.44
2023-03-21T07:55:26.212Z,97102.94
2023-03-21T07:57:54.552Z,97111.06
2023-03-21T08:00:23.829Z,97111.34
2023-03-21T08:02:57.182Z,97096.78
2023-03-21T08:05:28.055Z,97093.91
2023-03-21T08:07:55.904Z,97094.75
2023-03-21T08:10:25.196Z,97094.59
2023-03-21T08:12:52.939Z,97100.97
2023-03-21T08:15:20.920Z,97090.09
2023-03-21T08:17:48.618Z,97089.91
2023-03-21T08:20:18.508Z,97095.69
2023-03-21T08:22:46.108Z,97104.03
2023-03-21T08:25:15.320Z,97099.69
2023-03-21T08:27:45.472Z,97096.13
2023-03-21T08:30:14.921Z,97086.13
2023-03-21T08:32:42.981Z,97078.34
2023-03-21T08:35:12.138Z,97089.06
2023-03-21T08:37:40.217Z,97071.63
2023-03-21T08:40:11.321Z,97085.41
2023-03-21T08:42:39.513Z,97074.97
2023-03-21T08:45:09.979Z,97080.00
2023-03-21T08:47:38.108Z,97077.19
2023-03-21T08:50:07.918Z,97074.97
2023-03-21T08:52:35.609Z,97079.09
2023-03-21T08:55:03.672Z,97082.81
2023-03-21T08:57:31.407Z,97074.66
2023-03-21T08:59:59.038Z,97063.22
2023-03-21T09:02:28.057Z,97073.53
2023-03-21T09:04:59.140Z,97077.69
2023-03-21T09:07:27.903Z,97070.19
2023-03-21T09:10:14.823Z,97075.78
2023-03-21T09:12:43.512Z,97069.66
2023-03-21T09:15:13.113Z,97074.03
2023-03-21T09:17:43.966Z,97059.00
2023-03-21T09:20:20.872Z,97070.09
2023-03-21T09:22:49.585Z,97060.88
2023-03-21T09:25:18.018Z,97063.38
2023-03-21T09:27:46.034Z,97059.00
2023-03-21T09:30:16.354Z,97064.00
2023-03-21T09:32:48.295Z,97049.81
2023-03-21T09:35:16.267Z,97049.50
2023-03-21T11:27:36.422Z,96967.09
2023-03-21T11:30:06.290Z,96974.25
2023-03-21T11:32:35.877Z,96964.22
2023-03-21T11:35:07.329Z,96956.25
2023-03-21T11:37:39.308Z,96964.19
2023-03-21T11:40:16.645Z,96956.03
2023-03-21T11:42:48.206Z,96956.00
2023-03-21T11:45:18.493Z,96947.44
2023-03-21T11:47:46.712Z,96944.34
2023-03-21T11:50:20.441Z,96941.28
2023-03-21T11:53:00.907Z,96943.53
2023-03-21T11:55:46.289Z,96930.66
2023-03-21T11:58:37.655Z,96929.63
2023-03-21T12:01:12.238Z,96931.03
2023-03-21T12:04:05.059Z,96925.09
2023-03-21T12:06:36.642Z,96917.31
2023-03-21T12:09:30.795Z,96902.38
2023-03-21T12:12:24.492Z,96905.84
2023-03-21T12:15:08.045Z,96904.03
2023-03-21T12:17:42.429Z,96901.78
2023-03-21T12:20:26.414Z,96902.00
2023-03-21T12:23:02.422Z,96896.66
2023-03-21T12:25:33.512Z,96893.31
2023-03-21T12:28:09.549Z,96889.78
2023-03-21T12:30:48.893Z,96889.63
2023-03-21T12:33:26.170Z,96888.00
2023-03-21T12:36:11.227Z,96878.53
2023-03-21T12:38:42.101Z,96877.41
2023-03-21T12:41:21.822Z,96875.34
2023-03-21T12:43:54.007Z,96880.28
2023-03-21T12:46:28.701Z,96870.69
2023-03-21T12:48:59.497Z,96865.25
2023-03-21T12:51:32.413Z,96872.25
2023-03-21T12:54:08.561Z,96861.59
2023-03-21T12:56:39.065Z,96861.28
2023-03-21T12:59:15.249Z,96849.22
2023-03-21T13:01:44.738Z,96861.66
2023-03-21T13:04:42.535Z,96853.47
2023-03-21T13:07:13.866Z,96856.19
2023-03-21T13:09:42.666Z,96847.94
2023-03-21T13:12:22.892Z,96844.91
2023-03-21T13:14:59.635Z,96841.78
2023-03-21T13:17:33.788Z,96828.31
2023-03-21T13:20:08.671Z,96838.81
2023-03-21T13:22:36.244Z,96837.09
2023-03-21T13:25:06.704Z,96830.78
2023-03-21T13:27:36.098Z,96834.50
2023-03-21T13:30:06.850Z,96836.19
2023-03-21T13:32:38.402Z,96833.25
2023-03-21T13:35:16.232Z,96828.91
2023-03-21T13:37:46.020Z,96819.06
2023-03-21T13:40:22.928Z,96821.63
2023-03-21T13:42:53.690Z,96815.41
2023-03-21T13:45:29.152Z,96808.31
2023-03-21T13:47:59.664Z,96799.81
2023-03-21T13:50:51.101Z,96808.50
2023-03-21T13:53:34.134Z,96807.09
2023-03-21T13:56:09.275Z,96799.44
2023-03-21T13:58:39.361Z,96793.97
2023-03-21T14:01:16.153Z,96795.13
2023-03-21T14:03:45.825Z,96794.44
2023-03-21T14:06:13.821Z,96792.00
2023-03-21T14:08:42.260Z,96786.66
2023-03-21T14:11:14.593Z,96779.22
2023-03-21T14:13:50.840Z,96784.25
2023-03-21T14:16:19.850Z,96786.91
2023-03-21T14:18:54.656Z,96781.50
2023-03-21T14:21:25.057Z,96781.75
2023-03-21T14:23:58.220Z,96783.84
2023-03-21T14:26:26.950Z,96778.53
2023-03-21T14:28:54.714Z,96771.63
2023-03-21T14:31:22.481Z,96772.22
2023-03-21T14:33:54.250Z,96772.84
2023-03-21T14:36:25.714Z,96768.16
2023-03-21T14:39:07.252Z,96775.72
2023-03-21T14:41:45.998Z,96762.53
2023-03-21T14:44:25.487Z,96763.47
2023-03-21T14:47:04.818Z,96763.19
2023-03-21T14:49:35.038Z,96765.41
2023-03-21T14:52:06.717Z,96760.25
2023-03-21T14:54:34.666Z,96761.81
2023-03-21T14:57:03.673Z,96755.91
2023-03-21T14:59:34.651Z,96749.97
2023-03-21T15:02:04.519Z,96751.00
2023-03-21T15:04:33.877Z,96750.94
2023-03-21T15:07:05.015Z,96747.50
2023-03-21T15:09:34.802Z,96754.78
2023-03-21T15:12:03.719Z,96748.53
2023-03-21T15:14:34.151Z,96753.75
2023-03-21T15:17:04.194Z,96752.34
2023-03-21T15:19:35.407Z,96746.44
2023-03-21T15:22:18.736Z,96740.50
2023-03-21T15:24:49.047Z,96750.19
2023-03-21T15:27:18.882Z,96741.34
2023-03-21T15:29:47.248Z,96743.38
2023-03-21T15:32:17.506Z,96738.38
2023-03-21T15:34:47.177Z,96743.03
2023-03-21T15:37:18.288Z,96743.03
2023-03-21T15:39:46.270Z,96737.53
2023-03-21T15:42:32.032Z,96738.03
2023-03-21T15:45:02.769Z,96735.59
2023-03-21T15:47:41.811Z,96728.84
2023-03-21T15:50:17.395Z,96734.56
2023-03-21T15:52:45.258Z,96734.75
2023-03-21T15:55:25.928Z,96737.22
2023-03-21T15:57:55.305Z,96733.09
2023-03-21T16:00:26.926Z,96729.56
2023-03-21T16:02:59.316Z,96719.97
2023-03-21T16:05:30.708Z,96731.50
2023-03-21T16:08:06.904Z,96734.22
2023-03-21T16:10:37.669Z,96730.34
2023-03-21T16:13:06.564Z,96728.75
2023-03-21T16:15:34.350Z,96729.69
2023-03-21T16:18:04.386Z,96735.22
2023-03-21T16:20:37.741Z,96739.78
2023-03-21T16:23:05.618Z,96735.13
2023-03-21T16:25:33.424Z,96738.44
2023-03-21T16:28:01.061Z,96729.63
2023-03-21T16:30:28.677Z,96735.81
2023-03-21T16:32:57.443Z,96737.91
2023-03-21T16:35:26.078Z,96732.66
2023-03-21T16:37:55.028Z,96737.63
2023-03-21T16:40:27.578Z,96746.44
2023-03-21T16:42:55.486Z,96748.09
2023-03-21T16:45:23.782Z,96744.81
2023-03-21T16:47:51.751Z,96756.09
2023-03-21T16:50:24.313Z,96746.91
2023-03-21T16:52:52.223Z,96756.94
2023-03-21T16:55:21.818Z,96757.34
2023-03-21T16:57:52.142Z,96752.84
2023-03-21T17:00:23.276Z,96739.56
2023-03-21T17:02:53.402Z,96743.25
2023-03-21T17:05:22.093Z,96748.31
2023-03-21T17:07:49.722Z,96757.28
2023-03-21T17:10:19.619Z,96750.16
2023-03-21T17:12:48.654Z,96758.50
2023-03-21T17:15:17.170Z,96754.81
2023-03-21T17:17:45.713Z,96759.91
2023-03-21T17:20:19.163Z,96752.72
2023-03-21T17:22:46.870Z,96758.44
2023-03-21T17:25:14.547Z,96764.31
2023-03-21T17:27:42.575Z,96765.13
2023-03-21T17:30:21.454Z,96755.88
2023-03-21T17:32:49.637Z,96763.78
2023-03-21T17:35:17.794Z,96766.41
2023-03-21T17:37:50.085Z,96766.41
2023-03-21T17:40:20.707Z,96756.06
2023-03-21T17:42:48.400Z,96763.97
2023-03-21T17:45:18.051Z,96757.44
2023-03-21T17:47:46.190Z,96765.97
2023-03-21T17:50:19.503Z,96759.19
2023-03-21T17:52:49.050Z,96768.19
2023-03-21T17:55:19.491Z,96770.81
2023-03-21T17:57:47.514Z,96772.00
2023-03-21T18:00:20.916Z,96773.44
2023-03-21T18:02:48.555Z,96776.69
2023-03-21T18:05:17.516Z,96776.25
2023-03-21T18:08:08.948Z,96771.19
2023-03-21T18:10:33.945Z,96773.41
2023-03-21T18:13:02.193Z,96777.91
2023-03-21T18:15:31.274Z,96781.16
2023-03-21T18:17:59.409Z,96785.47
2023-03-21T18:20:49.929Z,96785.25
2023-03-21T18:23:18.598Z,96772.16
2023-03-21T18:25:47.164Z,96778.69
2023-03-21T18:28:19.161Z,96786.03
2023-03-21T18:31:11.464Z,96785.78
2023-03-21T18:33:40.180Z,96785.16
2023-03-21T18:36:08.712Z,96783.94
2023-03-21T18:38:37.172Z,96799.97
2023-03-21T18:41:05.541Z,96780.72
2023-03-21T18:46:22.303Z,96793.28
2023-03-21T18:48:51.569Z,96786.72
2023-03-21T18:51:19.686Z,96788.28
2023-03-21T18:53:47.748Z,96780.88
2023-03-21T18:56:57.633Z,96794.31
2023-03-21T18:59:03.500Z,96787.72
2023-03-21T19:01:32.613Z,96794.16
2023-03-21T19:04:16.495Z,96795.78
2023-03-21T19:06:50.167Z,96792.31
2023-03-21T19:09:18.856Z,96793.31
2023-03-21T19:11:47.397Z,96797.13
2023-03-21T19:14:16.844Z,96794.94
2023-03-21T19:17:26.964Z,96796.78
2023-03-21T19:19:34.462Z,96810.19
2023-03-21T19:22:02.260Z,96808.00
2023-03-21T19:24:29.850Z,96804.78
2023-03-21T19:26:57.612Z,96810.28
2023-03-21T19:29:25.793Z,96806.63
2023-03-21T19:31:54.883Z,96803.75
2023-03-21T19:34:22.542Z,96812.91
2023-03-21T19:36:51.819Z,96813.72
2023-03-21T19:39:22.119Z,96811.91
2023-03-21T19:41:50.248Z,96818.63
2023-03-21T19:44:19.111Z,96812.72
2023-03-21T19:46:48.340Z,96810.06
2023-03-21T19:49:22.113Z,96817.56
2023-03-21T19:51:50.071Z,96805.53
2023-03-21T19:54:18.477Z,96805.72
2023-03-21T19:56:47.440Z,96809.34
2023-03-21T19:59:15.912Z,96804.66
2023-03-21T20:01:43.480Z,96805.28
2023-03-21T20:04:11.292Z,96803.41
2023-03-21T20:06:40.427Z,96813.50
2023-03-21T20:11:57.755Z,96813.91
2023-03-21T20:14:25.803Z,96813.09
2023-03-21T20:16:55.374Z,96801.81
2023-03-21T20:19:23.035Z,96807.84
2023-03-21T20:21:58.731Z,96804.72
2023-03-21T20:24:28.190Z,96811.16
2023-03-21T20:26:56.151Z,96803.88
2023-03-21T20:32:11.509Z,96813.81
2023-03-21T20:34:39.288Z,96812.34
2023-03-21T20:37:08.403Z,96809.00
2023-03-21T20:39:36.232Z,96816.66
2023-03-21T20:42:05.431Z,96825.94
2023-03-21T20:44:58.459Z,96822.22
2023-03-21T20:47:20.932Z,96817.66
2023-03-21T20:49:49.481Z,96819.75
2023-03-21T20:55:09.021Z,96814.09
2023-03-21T20:57:38.769Z,96806.34
2023-03-21T21:00:13.707Z,96811.00
2023-03-21T21:02:42.139Z,96813.81
2023-03-21T21:05:25.323Z,96815.66
2023-03-21T21:07:57.349Z,96813.38
2023-03-21T21:10:36.460Z,96815.38
2023-03-21T21:13:12.624Z,96818.38
2023-03-21T21:15:40.205Z,96821.19
2023-03-21T21:18:08.469Z,96817.38
2023-03-21T21:20:37.201Z,96828.22
2023-03-21T21:23:06.687Z,96829.22
2023-03-21T21:25:35.549Z,96831.59
2023-03-21T21:28:03.650Z,96831.59
2023-03-21T21:30:32.477Z,96824.03
2023-03-21T21:33:00.757Z,96829.94
2023-03-21T21:35:28.489Z,96833.22
2023-03-21T21:37:56.145Z,96818.00
2023-03-21T21:40:25.608Z,96818.19
2023-03-21T21:42:53.692Z,96817.00
2023-03-21T21:45:21.547Z,96816.53
2023-03-21T21:47:49.397Z,96816.09
2023-03-21T21:50:17.146Z,96814.44
2023-03-21T21:52:52.530Z,96823.19
2023-03-21T21:55:20.407Z,96821.03
2023-03-21T21:57:51.006Z,96826.47
2023-03-21T22:00:20.276Z,96823.34
2023-03-21T22:02:48.051Z,96827.69
2023-03-21T22:05:16.280Z,96826.03
2023-03-21T22:07:44.324Z,96818.25
2023-03-21T22:10:12.302Z,96814.09
2023-03-21T22:12:39.847Z,96819.00
2023-03-21T22:15:10.738Z,96822.66
2023-03-21T22:17:38.730Z,96821.03
2023-03-21T22:20:08.763Z,96822.66
2023-03-21T22:22:37.168Z,96815.75
2023-03-21T22:25:06.238Z,96816.53
2023-03-21T22:27:34.399Z,96819.66
2023-03-21T22:30:04.681Z,96812.00
2023-03-21T22:32:33.644Z,96816.56
2023-03-21T22:35:02.453Z,96804.63
2023-03-21T22:37:30.141Z,96795.69
2023-03-21T22:39:57.786Z,96794.69
2023-03-21T22:42:25.382Z,96789.41
2023-03-21T22:44:52.952Z,96786.78
2023-03-21T22:47:20.866Z,96785.97
2023-03-21T22:49:50.030Z,96795.53
2023-03-21T22:52:17.686Z,96788.16
2023-03-21T22:54:45.893Z,96798.06
2023-03-21T22:57:14.046Z,96801.59
2023-03-21T22:59:41.832Z,96801.91
2023-03-21T23:02:09.993Z,96808.41
2023-03-21T23:04:37.825Z,96814.03
2023-03-21T23:07:06.901Z,96822.84
2023-03-21T23:09:34.612Z,96820.63
2023-03-21T23:12:02.155Z,96815.41
2023-03-21T23:14:29.816Z,96809.69
2023-03-21T23:17:02.559Z,96811.69
2023-03-21T23:19:31.278Z,96803.28
2023-03-21T23:21:59.118Z,96807.56
2023-03-21T23:24:28.128Z,96816.13
2023-03-21T23:26:55.823Z,96814.97
2023-03-21T23:29:23.375Z,96813.75
2023-03-21T23:31:51.082Z,96816.59
2023-03-21T23:34:18.772Z,96824.50
2023-03-21T23:36:46.296Z,96828.06
2023-03-21T23:39:13.937Z,96826.28
2023-03-21T23:41:45.142Z,96832.19
2023-03-21T23:44:12.689Z,96829.72
2023-03-21T23:46:40.236Z,96830.56
2023-03-21T23:49:07.746Z,96825.97
2023-03-21T23:51:35.301Z,96826.03
2023-03-21T23:54:02.902Z,96826.03
2023-03-21T23:56:30.478Z,96827.03
2023-03-21T23:59:00.047Z,96828.22
